Time;durP1;ratioP1;P1;durP2;ratioP2;P2;SDS_P1;SDS_P2;PMS_P1;PMS_P2;Temp;Humidity;BMP_temperature;BMP_pressure;BME280_temperature;BME280_humidity;BME280_pressure;Samples;Min_cycle;Max_cycle;Signal;HPM_P1;HPM_P2
2021/08/15 00:02:11;;;;;;;;;;;;;;;35.48;20.44;94872.16;5076701;28;19913;-54
2021/08/15 00:04:38;;;;;;;;;;;;;;;35.79;20.12;94883.22;5077266;28;19923;-59
2021/08/15 00:07:06;;;;;;;;;;;;;;;35.32;20.54;94874.16;5077678;28;19912;-60
2021/08/15 00:09:33;;;;;;;;;;;;;;;35.40;20.32;94872.81;5076087;28;20266;-59
2021/08/15 00:12:03;;;;;;;;;;;;;;;35.20;20.68;94862.09;5056241;28;19928;-60
2021/08/15 00:14:31;;;;;;;;;;;;;;;35.43;20.28;94866.50;5056423;28;19923;-54
2021/08/15 00:16:57;;;;;;;;;;;;;;;35.27;20.63;94872.00;5056962;28;19912;-57
2021/08/15 00:19:24;;;;;;;;;;;;;;;35.23;20.68;94872.09;5065224;28;19912;-53
2021/08/15 00:21:51;;;;;;;;;;;;;;;35.14;20.78;94874.72;5076264;28;19919;-54
2021/08/15 00:24:18;;;;;;;;;;;;;;;35.21;20.68;94869.81;5076995;28;20203;-58
2021/08/15 00:26:45;;;;;;;;;;;;;;;35.16;20.90;94870.38;5076299;28;19912;-57
2021/08/15 00:29:12;;;;;;;;;;;;;;;35.22;20.74;94873.31;5069063;28;19917;-57
2021/08/15 00:31:38;;;;;;;;;;;;;;;35.05;20.84;94866.41;5056655;28;20275;-55
2021/08/15 00:34:05;;;;;;;;;;;;;;;35.16;20.88;94877.75;5055684;28;20295;-55
2021/08/15 00:36:32;;;;;;;;;;;;;;;35.04;21.14;94875.75;5056353;28;19913;-56
2021/08/15 00:39:00;;;;;;;;;;;;;;;34.96;21.07;94874.44;5056029;28;19920;-54
2021/08/15 00:41:26;;;;;;;;;;;;;;;34.70;21.38;94866.22;5066259;28;19917;-58
2021/08/15 00:43:53;;;;;;;;;;;;;;;34.75;21.57;94870.34;5076622;28;19912;-54
2021/08/15 00:46:20;;;;;;;;;;;;;;;34.62;21.21;94873.78;5076412;28;19916;-54
2021/08/15 00:48:47;;;;;;;;;;;;;;;34.76;21.22;94863.72;5075242;28;19923;-54
2021/08/15 00:51:14;;;;;;;;;;;;;;;34.81;21.12;94857.75;5076368;28;19927;-54
2021/08/15 00:53:41;;;;;;;;;;;;;;;35.01;20.58;94866.53;5075445;28;20295;-55
2021/08/15 00:56:08;;;;;;;;;;;;;;;34.92;20.78;94859.03;5074984;28;19913;-54
2021/08/15 00:58:38;;;;;;;;;;;;;;;34.74;20.91;94864.16;5074814;28;20334;-53
2021/08/15 01:01:09;;;;;;;;;;;;;;;34.83;21.05;94867.00;5074760;28;19916;-53
2021/08/15 01:03:37;;;;;;;;;;;;;;;35.07;20.58;94864.03;5057814;28;19913;-56
2021/08/15 01:06:04;;;;;;;;;;;;;;;34.83;21.07;94861.56;5056251;28;20254;-58
2021/08/15 01:08:31;;;;;;;;;;;;;;;34.75;20.97;94860.25;5055099;28;19926;-60
2021/08/15 01:10:59;;;;;;;;;;;;;;;34.76;20.82;94867.19;5075409;28;20318;-64
2021/08/15 01:13:26;;;;;;;;;;;;;;;34.93;20.90;94854.34;5074994;28;19912;-56
2021/08/15 01:15:53;;;;;;;;;;;;;;;34.41;21.43;94857.31;5075548;28;19942;-55
2021/08/15 01:18:21;;;;;;;;;;;;;;;34.84;20.92;94857.69;5076270;28;19916;-56
2021/08/15 01:20:49;;;;;;;;;;;;;;;34.62;21.30;94867.59;5056291;28;19912;-58
2021/08/15 01:23:16;;;;;;;;;;;;;;;34.38;21.63;94863.59;5055802;28;20315;-55
2021/08/15 01:25:43;;;;;;;;;;;;;;;34.12;21.84;94866.16;5055994;28;19919;-56
2021/08/15 01:28:13;;;;;;;;;;;;;;;34.21;21.66;94863.59;5055255;28;19928;-58
2021/08/15 01:30:40;;;;;;;;;;;;;;;34.39;21.53;94865.88;5055557;28;19916;-54
2021/08/15 01:33:08;;;;;;;;;;;;;;;34.39;21.43;94865.13;5055634;28;19912;-54
2021/08/15 01:35:35;;;;;;;;;;;;;;;34.35;21.41;94864.44;5055829;28;19912;-56
2021/08/15 01:38:02;;;;;;;;;;;;;;;34.55;21.36;94862.34;5055353;28;19923;-54
2021/08/15 01:40:29;;;;;;;;;;;;;;;34.52;21.24;94871.34;5055083;28;19912;-54
2021/08/15 01:42:55;;;;;;;;;;;;;;;33.99;22.03;94866.06;5055789;28;19925;-53
2021/08/15 01:45:22;;;;;;;;;;;;;;;34.25;21.58;94872.41;5055287;28;19913;-57
2021/08/15 01:47:49;;;;;;;;;;;;;;;34.24;21.51;94860.03;5054574;28;19916;-55
2021/08/15 01:50:16;;;;;;;;;;;;;;;34.32;21.61;94866.78;5069198;28;19920;-54
2021/08/15 01:52:43;;;;;;;;;;;;;;;34.25;21.84;94866.97;5075339;28;20258;-54
2021/08/15 01:55:10;;;;;;;;;;;;;;;34.48;21.22;94865.25;5075225;28;19923;-54
2021/08/15 01:57:37;;;;;;;;;;;;;;;34.36;21.32;94865.97;5075241;28;19916;-53
2021/08/15 02:00:04;;;;;;;;;;;;;;;34.29;21.56;94875.78;5075172;28;20238;-57
2021/08/15 02:02:42;;;;;;;;;;;;;;;34.49;21.34;94872.22;5075503;28;19912;-57
2021/08/15 02:05:20;;;;;;;;;;;;;;;34.31;21.35;94872.63;5074981;28;19920;-54
2021/08/15 02:07:47;;;;;;;;;;;;;;;34.21;21.76;94871.72;5074950;28;20323;-53
2021/08/15 02:10:14;;;;;;;;;;;;;;;34.43;21.56;94871.22;5062668;28;19943;-51
2021/08/15 02:12:41;;;;;;;;;;;;;;;34.53;21.25;94862.00;5071219;28;19916;-54
2021/08/15 02:15:08;;;;;;;;;;;;;;;34.52;21.30;94868.63;5065054;28;19913;-51
2021/08/15 02:17:35;;;;;;;;;;;;;;;34.50;21.32;94873.72;5055021;28;20299;-52
2021/08/15 02:20:03;;;;;;;;;;;;;;;34.60;21.12;94864.53;5054697;28;19924;-61
2021/08/15 02:22:30;;;;;;;;;;;;;;;34.65;20.97;94872.16;5054792;28;19916;-55
2021/08/15 02:24:57;;;;;;;;;;;;;;;34.72;21.13;94865.78;5054828;28;19923;-53
2021/08/15 02:27:23;;;;;;;;;;;;;;;34.65;20.98;94861.31;5054867;28;19919;-53
2021/08/15 02:29:50;;;;;;;;;;;;;;;34.38;21.47;94858.94;5063812;28;19916;-50
2021/08/15 02:32:17;;;;;;;;;;;;;;;34.62;20.88;94862.94;5074148;28;19931;-53
2021/08/15 02:34:44;;;;;;;;;;;;;;;34.75;21.08;94860.25;5074756;28;19912;-51
2021/08/15 02:37:11;;;;;;;;;;;;;;;34.42;21.14;94858.84;5075007;28;20196;-62
2021/08/15 02:39:38;;;;;;;;;;;;;;;34.54;20.96;94867.00;5067054;28;19916;-51
2021/08/15 02:42:04;;;;;;;;;;;;;;;34.35;21.31;94853.56;5054678;28;20312;-54
2021/08/15 02:44:32;;;;;;;;;;;;;;;34.49;20.95;94856.69;5054510;28;19916;-52
2021/08/15 02:46:59;;;;;;;;;;;;;;;34.53;21.05;94859.31;5053851;28;19920;-52
2021/08/15 02:49:26;;;;;;;;;;;;;;;34.47;21.15;94850.94;5059464;28;19922;-53
2021/08/15 02:51:52;;;;;;;;;;;;;;;34.53;20.96;94859.31;5074536;28;19916;-52
2021/08/15 02:54:19;;;;;;;;;;;;;;;34.31;21.31;94862.53;5074640;28;19912;-51
2021/08/15 02:56:46;;;;;;;;;;;;;;;34.57;20.99;94855.28;5074876;28;20291;-52
2021/08/15 02:59:13;;;;;;;;;;;;;;;34.51;21.01;94861.69;5074783;28;19916;-55
2021/08/15 03:01:40;;;;;;;;;;;;;;;34.49;21.10;94859.41;5058609;28;19916;-51
2021/08/15 03:04:07;;;;;;;;;;;;;;;34.63;20.86;94863.69;5058353;28;19917;-54
2021/08/15 03:06:39;;;;;;;;;;;;;;;34.30;21.31;94866.44;5057690;28;19919;-53
2021/08/15 03:09:06;;;;;;;;;;;;;;;34.20;21.42;94870.22;5061355;28;19920;-51
2021/08/15 03:11:33;;;;;;;;;;;;;;;34.53;21.00;94873.63;5075929;28;19928;-53
2021/08/15 03:14:00;;;;;;;;;;;;;;;34.49;20.98;94870.25;5071920;28;19916;-53
2021/08/15 03:16:27;;;;;;;;;;;;;;;34.42;21.04;94869.69;5058243;28;19912;-52
2021/08/15 03:18:53;;;;;;;;;;;;;;;34.29;21.49;94883.91;5058133;28;19924;-51
2021/08/15 03:21:20;;;;;;;;;;;;;;;34.30;21.43;94874.59;5057801;28;19917;-52
2021/08/15 03:23:47;;;;;;;;;;;;;;;34.23;21.45;94871.31;5057842;28;19919;-52
2021/08/15 03:26:14;;;;;;;;;;;;;;;34.35;21.23;94876.03;5058225;28;20235;-60
2021/08/15 03:28:43;;;;;;;;;;;;;;;34.16;21.39;94869.53;5057960;28;19917;-53
2021/08/15 03:31:09;;;;;;;;;;;;;;;34.28;21.25;94871.53;5075751;28;19916;-51
2021/08/15 03:33:36;;;;;;;;;;;;;;;34.27;21.32;94870.03;5077262;28;19919;-52
2021/08/15 03:36:03;;;;;;;;;;;;;;;34.31;21.17;94875.34;5077934;28;19916;-53
2021/08/15 03:38:30;;;;;;;;;;;;;;;34.42;20.96;94875.13;5076906;28;19917;-52
2021/08/15 03:40:57;;;;;;;;;;;;;;;34.43;21.23;94871.22;5076956;28;19923;-55
2021/08/15 03:43:24;;;;;;;;;;;;;;;34.37;21.31;94867.50;5077791;28;20429;-53
2021/08/15 03:45:50;;;;;;;;;;;;;;;34.18;21.36;94866.41;5076920;28;19923;-51
2021/08/15 03:48:17;;;;;;;;;;;;;;;34.12;21.35;94870.81;5077358;28;19916;-52
2021/08/15 03:50:44;;;;;;;;;;;;;;;34.35;21.12;94873.31;5063370;28;20354;-54
2021/08/15 03:53:11;;;;;;;;;;;;;;;34.36;20.99;94871.41;5057587;28;19913;-52
2021/08/15 03:55:38;;;;;;;;;;;;;;;34.47;21.05;94877.31;5057392;28;19913;-51
2021/08/15 03:58:05;;;;;;;;;;;;;;;34.40;21.06;94877.50;5057428;28;19917;-53
2021/08/15 04:00:32;;;;;;;;;;;;;;;34.29;21.38;94873.06;5059802;28;19921;-49
2021/08/15 04:02:59;;;;;;;;;;;;;;;34.24;21.47;94876.31;5057458;28;19913;-52
2021/08/15 04:05:26;;;;;;;;;;;;;;;34.40;21.19;94883.69;5057209;28;20300;-53
2021/08/15 04:07:53;;;;;;;;;;;;;;;34.45;21.29;94874.25;5058223;28;19975;-52
2021/08/15 04:10:20;;;;;;;;;;;;;;;34.52;21.45;94874.06;5065713;28;20323;-51
2021/08/15 04:12:46;;;;;;;;;;;;;;;34.29;21.64;94875.00;5057580;28;19924;-52
2021/08/15 04:15:13;;;;;;;;;;;;;;;34.41;21.58;94873.59;5057103;28;19916;-51
2021/08/15 04:17:40;;;;;;;;;;;;;;;34.32;21.43;94872.22;5056758;28;19928;-50
2021/08/15 04:20:08;;;;;;;;;;;;;;;34.51;21.50;94867.09;5064759;28;20219;-52
2021/08/15 04:22:35;;;;;;;;;;;;;;;34.47;21.50;94861.78;5077339;28;19919;-55
2021/08/15 04:25:02;;;;;;;;;;;;;;;34.13;22.09;94870.41;5077082;28;19912;-54
2021/08/15 04:27:29;;;;;;;;;;;;;;;34.48;21.64;94870.69;5077433;28;19912;-52
2021/08/15 04:29:56;;;;;;;;;;;;;;;34.47;21.77;94872.63;5070961;28;19923;-52
2021/08/15 04:32:23;;;;;;;;;;;;;;;34.28;21.77;94876.97;5057175;28;19913;-54
2021/08/15 04:34:50;;;;;;;;;;;;;;;34.57;21.54;94882.44;5057134;28;20319;-52
2021/08/15 04:37:20;;;;;;;;;;;;;;;34.67;21.78;94880.66;5056691;28;19913;-53
2021/08/15 04:39:46;;;;;;;;;;;;;;;34.81;21.62;94876.75;5073248;28;19919;-53
2021/08/15 04:42:13;;;;;;;;;;;;;;;34.84;21.60;94884.84;5076878;28;20333;-52
2021/08/15 04:44:40;;;;;;;;;;;;;;;35.06;21.43;94884.25;5076757;28;19923;-51
2021/08/15 04:47:07;;;;;;;;;;;;;;;34.94;21.66;94883.03;5076277;28;19912;-53
2021/08/15 04:49:34;;;;;;;;;;;;;;;35.20;20.90;94892.75;5073841;28;19916;-53
2021/08/15 04:52:00;;;;;;;;;;;;;;;35.31;21.14;94884.28;5056676;28;20592;-52
2021/08/15 04:54:27;;;;;;;;;;;;;;;35.45;20.81;94883.91;5056502;28;20342;-53
2021/08/15 04:56:54;;;;;;;;;;;;;;;35.45;20.54;94889.34;5056708;28;20314;-53
2021/08/15 04:59:21;;;;;;;;;;;;;;;35.65;20.11;94891.06;5056467;28;19920;-61
2021/08/15 05:01:48;;;;;;;;;;;;;;;35.52;20.34;94889.09;5076506;28;19920;-53
2021/08/15 05:04:15;;;;;;;;;;;;;;;35.93;19.52;94894.91;5076283;28;19913;-54
2021/08/15 05:06:42;;;;;;;;;;;;;;;36.05;19.46;94892.13;5076576;28;19949;-52
2021/08/15 05:09:09;;;;;;;;;;;;;;;35.91;19.23;94891.81;5070118;28;19927;-54
2021/08/15 05:11:36;;;;;;;;;;;;;;;35.93;19.79;94901.09;5074163;28;19920;-53
2021/08/15 05:14:02;;;;;;;;;;;;;;;36.04;19.35;94898.78;5074979;28;19923;-53
2021/08/15 05:16:29;;;;;;;;;;;;;;;35.94;19.80;94894.44;5076080;28;19919;-54
2021/08/15 05:18:56;;;;;;;;;;;;;;;36.15;19.70;94901.16;5075801;28;19912;-54
2021/08/15 05:21:23;;;;;;;;;;;;;;;36.32;19.15;94909.97;5058108;28;19912;-52
2021/08/15 05:23:50;;;;;;;;;;;;;;;36.44;19.40;94912.66;5055375;28;19917;-53
2021/08/15 05:26:17;;;;;;;;;;;;;;;36.37;19.53;94909.41;5055177;28;19917;-53
2021/08/15 05:28:43;;;;;;;;;;;;;;;36.38;19.44;94913.63;5055162;28;19921;-53
2021/08/15 05:31:11;;;;;;;;;;;;;;;36.53;19.15;94913.94;5069525;28;19990;-52
2021/08/15 05:33:37;;;;;;;;;;;;;;;36.42;19.42;94909.59;5074411;28;19916;-52
2021/08/15 05:36:04;;;;;;;;;;;;;;;36.44;19.39;94914.63;5062620;28;19917;-55
2021/08/15 05:38:31;;;;;;;;;;;;;;;36.62;19.21;94914.75;5053779;28;19917;-52
2021/08/15 05:40:58;;;;;;;;;;;;;;;36.65;19.10;94911.16;5055000;28;19921;-55
2021/08/15 05:43:25;;;;;;;;;;;;;;;36.81;18.62;94912.22;5055421;28;19927;-53
2021/08/15 05:45:52;;;;;;;;;;;;;;;36.78;19.08;94916.59;5061242;28;19919;-51
2021/08/15 05:48:19;;;;;;;;;;;;;;;36.93;18.68;94909.41;5075402;28;19912;-52
2021/08/15 05:50:45;;;;;;;;;;;;;;;36.73;18.94;94912.44;5074843;28;19913;-53
2021/08/15 05:53:12;;;;;;;;;;;;;;;37.00;18.10;94909.19;5075024;28;20235;-51
2021/08/15 05:55:39;;;;;;;;;;;;;;;37.06;18.63;94906.63;5074632;28;19919;-53
2021/08/15 05:58:06;;;;;;;;;;;;;;;37.18;18.41;94916.69;5054867;28;19913;-52
2021/08/15 06:00:33;;;;;;;;;;;;;;;37.23;18.59;94905.22;5055152;28;19920;-52
2021/08/15 06:02:59;;;;;;;;;;;;;;;37.54;18.03;94907.22;5054551;28;19913;-54
2021/08/15 06:05:26;;;;;;;;;;;;;;;37.27;18.38;94900.44;5057751;28;19920;-53
2021/08/15 06:07:53;;;;;;;;;;;;;;;37.20;18.79;94906.09;5074894;28;19917;-53
2021/08/15 06:10:20;;;;;;;;;;;;;;;37.42;18.02;94899.88;5073856;28;20542;-52
2021/08/15 06:12:47;;;;;;;;;;;;;;;37.58;18.14;94905.13;5075125;28;20318;-52
2021/08/15 06:15:14;;;;;;;;;;;;;;;37.30;18.73;94899.53;5066176;28;19920;-54
2021/08/15 06:17:41;;;;;;;;;;;;;;;37.37;18.45;94900.47;5075485;28;19923;-52
2021/08/15 06:20:16;;;;;;;;;;;;;;;37.78;18.28;94900.06;5074781;28;19916;-52
2021/08/15 06:22:55;;;;;;;;;;;;;;;37.85;17.72;94894.31;5048149;28;19920;-52
2021/08/15 06:25:28;;;;;;;;;;;;;;;38.05;17.58;94891.19;5055099;28;19917;-52
2021/08/15 06:27:55;;;;;;;;;;;;;;;37.90;17.33;94896.47;5054756;28;19924;-52
2021/08/15 06:30:23;;;;;;;;;;;;;;;38.22;17.42;94888.97;5054600;28;20258;-53
2021/08/15 06:33:05;;;;;;;;;;;;;;;38.33;17.25;94892.03;5056146;28;19916;-53
2021/08/15 06:35:38;;;;;;;;;;;;;;;38.16;17.80;94898.94;5061857;28;20409;-55
2021/08/15 06:38:07;;;;;;;;;;;;;;;38.14;17.67;94898.63;5078517;28;19923;-53
2021/08/15 06:40:34;;;;;;;;;;;;;;;38.36;17.36;94893.84;5078995;28;19947;-54
2021/08/15 06:43:10;;;;;;;;;;;;;;;38.47;17.40;94894.16;5079807;28;19916;-53
2021/08/15 06:45:44;;;;;;;;;;;;;;;38.76;17.11;94887.50;5063799;28;19912;-54
2021/08/15 06:48:11;;;;;;;;;;;;;;;38.91;16.64;94891.13;5068284;28;19919;-52
2021/08/15 06:50:39;;;;;;;;;;;;;;;38.81;16.93;94890.41;5067823;28;19912;-53
2021/08/15 06:53:06;;;;;;;;;;;;;;;39.04;16.89;94890.97;5064726;28;19920;-52
2021/08/15 06:55:33;;;;;;;;;;;;;;;38.82;16.86;94888.41;5067784;28;19916;-52
2021/08/15 06:58:00;;;;;;;;;;;;;;;39.56;16.32;94887.09;5065362;28;20238;-55
2021/08/15 07:00:27;;;;;;;;;;;;;;;39.40;15.77;94890.13;5067363;28;20325;-54
2021/08/15 07:02:54;;;;;;;;;;;;;;;39.90;15.77;94887.81;5069309;28;19919;-53
2021/08/15 07:05:21;;;;;;;;;;;;;;;39.66;16.05;94891.28;5065401;28;20242;-53
2021/08/15 07:07:48;;;;;;;;;;;;;;;39.28;16.23;94888.34;5077359;28;19916;-54
2021/08/15 07:10:15;;;;;;;;;;;;;;;39.71;15.89;94889.88;5077043;28;19920;-54
2021/08/15 07:12:41;;;;;;;;;;;;;;;39.83;15.83;94888.16;5077528;28;19927;-56
2021/08/15 07:15:09;;;;;;;;;;;;;;;39.66;15.78;94891.28;5069611;28;19912;-62
2021/08/15 07:17:37;;;;;;;;;;;;;;;40.91;15.83;94891.41;5069853;28;19928;-68
2021/08/15 07:20:05;;;;;;;;;;;;;;;41.44;15.00;94892.59;5057143;28;19920;-69
2021/08/15 07:22:32;;;;;;;;;;;;;;;41.69;15.44;94886.50;5076565;28;19920;-56
2021/08/15 07:24:59;;;;;;;;;;;;;;;41.07;14.83;94881.22;5074508;28;19912;-54
2021/08/15 07:27:25;;;;;;;;;;;;;;;41.72;14.19;94885.56;5079358;28;20295;-60
2021/08/15 07:29:52;;;;;;;;;;;;;;;42.28;13.84;94882.84;5077659;28;19913;-66
2021/08/15 07:32:19;;;;;;;;;;;;;;;42.86;13.56;94881.75;5077691;28;19912;-58
2021/08/15 07:34:46;;;;;;;;;;;;;;;43.04;13.38;94873.22;5077118;28;19919;-77
2021/08/15 07:37:13;;;;;;;;;;;;;;;42.97;13.77;94886.66;5062937;28;19913;-67
2021/08/15 07:39:40;;;;;;;;;;;;;;;42.57;14.12;94885.44;5057373;28;19917;-72
2021/08/15 07:42:07;;;;;;;;;;;;;;;42.75;14.02;94874.16;5057745;28;19923;-65
2021/08/15 07:44:34;;;;;;;;;;;;;;;42.68;14.13;94877.34;5057774;28;19920;-71
2021/08/15 07:47:01;;;;;;;;;;;;;;;42.08;14.26;94878.84;5070458;28;19916;-64
2021/08/15 07:49:28;;;;;;;;;;;;;;;42.54;14.04;94880.91;5077231;28;19912;-52
2021/08/15 07:51:55;;;;;;;;;;;;;;;42.52;14.00;94880.66;5077250;28;19916;-74
2021/08/15 07:54:23;;;;;;;;;;;;;;;42.62;14.09;94873.00;5077851;28;19916;-63
2021/08/15 07:56:49;;;;;;;;;;;;;;;42.66;13.61;94866.06;5066222;28;19919;-48
2021/08/15 07:59:16;;;;;;;;;;;;;;;42.74;14.07;94867.16;5057570;28;19920;-53
2021/08/15 08:01:43;;;;;;;;;;;;;;;42.32;13.90;94869.63;5056548;28;19920;-55
2021/08/15 08:04:10;;;;;;;;;;;;;;;42.29;13.55;94878.84;5057492;28;19919;-50
2021/08/15 08:06:37;;;;;;;;;;;;;;;42.35;13.53;94863.19;5065799;28;19912;-66
2021/08/15 08:09:04;;;;;;;;;;;;;;;42.47;13.41;94873.09;5076101;28;19917;-53
2021/08/15 08:11:31;;;;;;;;;;;;;;;42.44;13.23;94871.28;5076511;28;19923;-53
2021/08/15 08:13:57;;;;;;;;;;;;;;;42.47;13.38;94857.38;5077014;28;19920;-55
2021/08/15 08:16:24;;;;;;;;;;;;;;;42.29;13.48;94862.38;5060069;28;19913;-55
2021/08/15 08:18:52;;;;;;;;;;;;;;;42.58;13.16;94864.22;5055497;28;19916;-54
2021/08/15 08:21:18;;;;;;;;;;;;;;;42.12;13.70;94868.41;5057002;28;19916;-56
2021/08/15 08:23:45;;;;;;;;;;;;;;;42.75;13.36;94856.91;5056952;28;20243;-55
2021/08/15 08:26:12;;;;;;;;;;;;;;;42.44;13.22;94849.31;5056549;28;19912;-54
2021/08/15 08:28:39;;;;;;;;;;;;;;;42.78;13.26;94855.94;5054972;28;19916;-54
2021/08/15 08:31:06;;;;;;;;;;;;;;;42.85;13.13;94854.75;5056845;28;19916;-55
2021/08/15 08:33:32;;;;;;;;;;;;;;;42.61;13.09;94853.00;5057068;28;20271;-57
2021/08/15 08:36:05;;;;;;;;;;;;;;;42.82;13.67;94841.97;5059103;28;19921;-62
2021/08/15 08:38:32;;;;;;;;;;;;;;;43.11;13.19;94839.03;5070464;28;19916;-49
2021/08/15 08:40:59;;;;;;;;;;;;;;;43.35;12.85;94839.47;5056574;28;20216;-51
2021/08/15 08:43:26;;;;;;;;;;;;;;;43.10;13.09;94837.50;5055733;28;19917;-53
2021/08/15 08:45:54;;;;;;;;;;;;;;;42.90;13.64;94845.81;5055568;28;20311;-57
2021/08/15 08:48:21;;;;;;;;;;;;;;;42.39;14.50;94836.25;5064525;28;20418;-57
2021/08/15 08:50:52;;;;;;;;;;;;;;;42.20;13.67;94829.56;5056248;28;19920;-56
2021/08/15 08:53:19;;;;;;;;;;;;;;;42.81;13.48;94821.97;5056665;28;19952;-66
2021/08/15 08:55:45;;;;;;;;;;;;;;;42.94;12.90;94819.66;5055624;28;19913;-52
2021/08/15 08:58:12;;;;;;;;;;;;;;;43.17;12.78;94820.56;5068129;28;19913;-53
2021/08/15 09:00:39;;;;;;;;;;;;;;;43.44;12.36;94821.28;5055919;28;19924;-53
2021/08/15 09:03:06;;;;;;;;;;;;;;;43.18;13.13;94811.06;5056167;28;19912;-59
2021/08/15 09:05:38;;;;;;;;;;;;;;;43.42;12.89;94815.50;5056083;28;19917;-65
2021/08/15 09:08:22;;;;;;;;;;;;;;;43.14;12.08;94810.53;5055726;28;19916;-56
2021/08/15 09:10:49;;;;;;;;;;;;;;;43.27;12.11;94813.66;5056024;28;19951;-59
2021/08/15 09:13:16;;;;;;;;;;;;;;;43.41;11.48;94811.25;5056193;28;20231;-55
2021/08/15 09:15:43;;;;;;;;;;;;;;;43.13;11.89;94803.53;5088169;28;19919;-56
2021/08/15 09:18:10;;;;;;;;;;;;;;;43.17;11.97;94806.81;5074521;28;19923;-58
2021/08/15 09:20:38;;;;;;;;;;;;;;;43.23;11.63;94809.63;5073771;28;20266;-56
2021/08/15 09:23:18;;;;;;;;;;;;;;;43.71;11.63;94798.72;5075816;28;19920;-59
2021/08/15 09:25:45;;;;;;;;;;;;;;;43.53;11.74;94796.34;5075061;28;19916;-56
2021/08/15 09:28:13;;;;;;;;;;;;;;;43.44;11.27;94799.28;5074604;28;19927;-60
2021/08/15 09:30:40;;;;;;;;;;;;;;;43.46;11.83;94791.28;5075804;28;19916;-56
2021/08/15 09:33:07;;;;;;;;;;;;;;;43.85;11.70;94792.28;5068639;28;19917;-58
2021/08/15 09:35:34;;;;;;;;;;;;;;;43.75;11.51;94785.47;5055451;28;19916;-58
2021/08/15 09:38:01;;;;;;;;;;;;;;;43.82;11.71;94779.50;5054717;28;19913;-62
2021/08/15 09:40:31;;;;;;;;;;;;;;;43.98;11.59;94776.06;5055781;28;19924;-60
2021/08/15 09:42:58;;;;;;;;;;;;;;;43.86;11.67;94779.28;5055016;28;19913;-56
2021/08/15 09:45:40;;;;;;;;;;;;;;;44.33;11.16;94772.19;5054684;28;19913;-59
2021/08/15 09:48:24;;;;;;;;;;;;;;;43.99;10.87;94777.59;5073264;28;19912;-60
2021/08/15 09:51:08;;;;;;;;;;;;;;;43.49;11.19;94768.31;5074725;28;19916;-58
2021/08/15 09:53:36;;;;;;;;;;;;;;;43.33;11.14;94767.69;5075267;28;20597;-59
2021/08/15 09:56:03;;;;;;;;;;;;;;;43.72;11.27;94761.66;5073856;28;19923;-58
2021/08/15 09:58:31;;;;;;;;;;;;;;;44.22;11.26;94763.88;5055219;28;20252;-62
2021/08/15 10:01:00;;;;;;;;;;;;;;;44.19;11.39;94751.13;5055277;28;19921;-63
2021/08/15 10:03:27;;;;;;;;;;;;;;;44.13;11.51;94747.59;5054000;28;20327;-61
2021/08/15 10:05:55;;;;;;;;;;;;;;;43.88;11.61;94750.00;5055145;28;19931;-60
2021/08/15 10:08:23;;;;;;;;;;;;;;;43.58;11.06;94741.31;5066660;28;19916;-59
2021/08/15 10:10:49;;;;;;;;;;;;;;;43.85;11.53;94745.47;5055051;28;19912;-61
2021/08/15 10:13:17;;;;;;;;;;;;;;;43.63;11.52;94750.84;5054937;28;19924;-59
2021/08/15 10:15:53;;;;;;;;;;;;;;;43.95;11.54;94738.50;5055078;28;19920;-62
2021/08/15 10:18:19;;;;;;;;;;;;;;;43.91;11.88;94738.00;5073923;28;19913;-75
2021/08/15 10:20:46;;;;;;;;;;;;;;;43.32;11.10;94732.44;5073245;28;20266;-59
2021/08/15 10:23:13;;;;;;;;;;;;;;;43.54;11.82;94735.31;5074891;28;19916;-70
2021/08/15 10:25:42;;;;;;;;;;;;;;;43.58;11.73;94722.06;5073237;28;19920;-48
2021/08/15 10:28:29;;;;;;;;;;;;;;;43.60;11.55;94730.59;5056951;28;20207;-51
2021/08/15 10:30:56;;;;;;;;;;;;;;;43.53;11.75;94722.03;5050574;28;19917;-45
2021/08/15 10:33:24;;;;;;;;;;;;;;;43.78;11.36;94725.94;5054801;28;19920;-53
2021/08/15 10:36:31;;;;;;;;;;;;;;;43.52;11.57;94713.03;5054907;28;20235;-54
2021/08/15 10:38:58;;;;;;;;;;;;;;;43.29;11.44;94722.41;5023145;28;19917;-45
2021/08/15 10:41:44;;;;;;;;;;;;;;;43.24;11.62;94732.13;5032167;28;19917;-48
2021/08/15 10:44:11;;;;;;;;;;;;;;;43.58;11.48;94711.06;5046716;28;20303;-61
2021/08/15 10:46:58;;;;;;;;;;;;;;;43.88;11.33;94713.44;5058599;28;19912;-55
2021/08/15 10:49:45;;;;;;;;;;;;;;;43.81;11.66;94714.69;5074073;28;20373;-56
2021/08/15 10:52:38;;;;;;;;;;;;;;;44.13;11.00;94709.03;5073726;28;19931;-68
2021/08/15 10:55:07;;;;;;;;;;;;;;;43.75;10.85;94707.66;5073657;28;19916;-67
2021/08/15 10:57:48;;;;;;;;;;;;;;;43.70;11.78;94706.38;5073726;28;19912;-70
2021/08/15 11:00:27;;;;;;;;;;;;;;;43.84;11.32;94699.19;5074573;28;19916;-56
2021/08/15 11:02:54;;;;;;;;;;;;;;;43.87;11.15;94696.19;5073245;28;19912;-56
2021/08/15 11:05:37;;;;;;;;;;;;;;;43.75;11.53;94686.41;5083684;28;19916;-56
2021/08/15 11:08:04;;;;;;;;;;;;;;;43.98;11.52;94687.97;5079182;28;19945;-74
2021/08/15 11:10:52;;;;;;;;;;;;;;;43.88;11.15;94683.91;5093509;28;19923;-69
2021/08/15 11:13:19;;;;;;;;;;;;;;;43.74;10.89;94678.63;5053351;28;19939;-56
2021/08/15 11:15:46;;;;;;;;;;;;;;;43.63;10.84;94668.28;5054975;28;19913;-56
2021/08/15 11:18:14;;;;;;;;;;;;;;;43.31;11.33;94684.16;5054500;28;19917;-57
2021/08/15 11:20:44;;;;;;;;;;;;;;;43.28;10.88;94674.91;5080282;28;19916;-69
2021/08/15 11:23:18;;;;;;;;;;;;;;;43.20;11.52;94668.31;5070595;28;19915;-67
2021/08/15 11:25:45;;;;;;;;;;;;;;;43.26;11.84;94674.63;5083840;28;19928;-53
2021/08/15 11:28:13;;;;;;;;;;;;;;;43.30;11.68;94668.91;5066392;28;19924;-57
2021/08/15 11:30:40;;;;;;;;;;;;;;;43.41;11.49;94657.19;5066683;28;19912;-53
2021/08/15 11:33:08;;;;;;;;;;;;;;;43.53;11.37;94661.50;5067969;28;19912;-56
2021/08/15 11:35:43;;;;;;;;;;;;;;;43.54;10.68;94661.03;5066628;28;19974;-55
2021/08/15 11:38:11;;;;;;;;;;;;;;;43.34;12.08;94659.19;5067919;28;19912;-55
2021/08/15 11:40:44;;;;;;;;;;;;;;;42.88;11.67;94650.38;5070391;28;19920;-55
2021/08/15 11:43:15;;;;;;;;;;;;;;;42.95;11.74;94649.94;5078234;28;19919;-59
2021/08/15 11:45:44;;;;;;;;;;;;;;;43.05;11.16;94637.50;5061441;28;19913;-54
2021/08/15 11:48:12;;;;;;;;;;;;;;;42.79;10.81;94643.06;5057710;28;19912;-56
2021/08/15 11:50:40;;;;;;;;;;;;;;;42.71;10.85;94642.03;5057849;28;20250;-55
2021/08/15 11:53:20;;;;;;;;;;;;;;;42.87;11.13;94637.84;5057426;28;19924;-56
2021/08/15 11:55:47;;;;;;;;;;;;;;;43.05;10.96;94626.50;5057669;28;19912;-53
2021/08/15 11:58:14;;;;;;;;;;;;;;;42.76;12.25;94627.56;5057608;28;20219;-55
2021/08/15 12:00:41;;;;;;;;;;;;;;;42.85;11.37;94632.09;5056622;28;19916;-54
2021/08/15 12:03:18;;;;;;;;;;;;;;;43.19;10.89;94622.81;5058442;28;19912;-57
2021/08/15 12:06:07;;;;;;;;;;;;;;;42.83;11.23;94620.84;5057503;28;19913;-55
2021/08/15 12:08:34;;;;;;;;;;;;;;;42.97;11.55;94617.97;5060410;28;19924;-55
2021/08/15 12:11:01;;;;;;;;;;;;;;;43.37;11.87;94622.41;5067747;28;19980;-53
2021/08/15 12:13:34;;;;;;;;;;;;;;;43.01;11.71;94620.50;5066887;28;19912;-54
2021/08/15 12:16:00;;;;;;;;;;;;;;;43.29;11.82;94618.66;5064611;28;19913;-54
2021/08/15 12:18:34;;;;;;;;;;;;;;;43.37;11.60;94608.66;5065229;28;20231;-54
2021/08/15 12:21:02;;;;;;;;;;;;;;;42.71;10.96;94612.53;5065709;28;20311;-53
2021/08/15 12:23:30;;;;;;;;;;;;;;;42.81;10.70;94606.84;5065300;28;19923;-53
2021/08/15 12:26:07;;;;;;;;;;;;;;;42.77;11.25;94599.59;5066669;28;19912;-54
2021/08/15 12:28:35;;;;;;;;;;;;;;;43.08;11.40;94609.00;5066205;28;20342;-53
2021/08/15 12:31:37;;;;;;;;;;;;;;;43.17;11.52;94595.06;5066385;28;19921;-55
2021/08/15 12:34:16;;;;;;;;;;;;;;;42.90;11.08;94601.16;5045210;28;19920;-53
2021/08/15 12:36:43;;;;;;;;;;;;;;;43.17;11.99;94606.06;5064543;28;19920;-55
2021/08/15 12:39:10;;;;;;;;;;;;;;;43.00;11.35;94608.75;5073690;28;20208;-55
2021/08/15 12:41:46;;;;;;;;;;;;;;;43.24;11.80;94604.84;5076656;28;20311;-62
2021/08/15 12:44:14;;;;;;;;;;;;;;;42.91;12.44;94595.19;5074264;28;19916;-55
2021/08/15 12:46:40;;;;;;;;;;;;;;;42.52;11.17;94592.16;5055601;28;19924;-55
2021/08/15 12:49:16;;;;;;;;;;;;;;;42.89;11.10;94596.91;5055955;28;19920;-54
2021/08/15 12:51:43;;;;;;;;;;;;;;;42.86;10.55;94597.88;5056700;28;19920;-54
2021/08/15 12:54:10;;;;;;;;;;;;;;;43.25;10.62;94589.84;5061793;28;19924;-55
2021/08/15 12:56:37;;;;;;;;;;;;;;;43.12;10.68;94589.53;5076588;28;19919;-54